VLG23KL LEBL-LEPA
Flight info
| Callsign | VLG23KL |
|---|---|
| Flight time | N/A |
| Altitude | 19000 |
| Route | LARPA N859 TOLSO |
| Aircraft | A20N/M-SDE2E3FGHIRWXY/LB1 |
Departure
| Time | 2026-04-28 14:24 |
|---|---|
| Airport | Josep Tarradellas Barcelona-El Prat Airport (LEBL) |
Arrival
| Time | N/A |
|---|---|
| Airport | Palma de Mallorca Airport (LEPA) |
| Time | Latitude | Longitude | Altitude | Speed | Heading |
|---|---|---|---|---|---|
| 2026-04-28 14:18 | 41.29213 | 2.07867 | 6 ft | 0 kts | 69° |
| 2026-04-28 14:18 | 41.29213 | 2.07868 | 6 ft | 1 kts | 69° |
| 2026-04-28 14:18 | 41.29216 | 2.07880 | 6 ft | 2 kts | 69° |
| 2026-04-28 14:19 | 41.29224 | 2.07904 | 7 ft | 3 kts | 65° |
| 2026-04-28 14:19 | 41.29236 | 2.07938 | 7 ft | 5 kts | 65° |
| 2026-04-28 14:19 | 41.29252 | 2.07985 | 6 ft | 6 kts | 65° |
| 2026-04-28 14:19 | 41.29274 | 2.08043 | 6 ft | 8 kts | 64° |
| 2026-04-28 14:20 | 41.29300 | 2.08114 | 6 ft | 9 kts | 64° |
| 2026-04-28 14:20 | 41.29331 | 2.08198 | 6 ft | 11 kts | 64° |
| 2026-04-28 14:20 | 41.29352 | 2.08277 | 6 ft | 11 kts | 67° |
| 2026-04-28 14:20 | 41.29349 | 2.08391 | 6 ft | 16 kts | 144° |
| 2026-04-28 14:21 | 41.29222 | 2.08469 | 6 ft | 26 kts | 155° |
| 2026-04-28 14:21 | 41.29068 | 2.08560 | 9 ft | 32 kts | 155° |
| 2026-04-28 14:21 | 41.28873 | 2.08685 | 8 ft | 19 kts | 130° |
| 2026-04-28 14:21 | 41.28905 | 2.08856 | 8 ft | 25 kts | 64° |
| 2026-04-28 14:22 | 41.28997 | 2.09127 | 6 ft | 52 kts | 66° |
| 2026-04-28 14:22 | 41.29159 | 2.09589 | 7 ft | 52 kts | 69° |
| 2026-04-28 14:22 | 41.29232 | 2.09809 | 6 ft | 24 kts | 66° |
| 2026-04-28 14:22 | 41.29277 | 2.10013 | 6 ft | 14 kts | 110° |
| 2026-04-28 14:23 | 41.29241 | 2.10135 | 9 ft | 14 kts | 109° |
| 2026-04-28 14:23 | 41.29236 | 2.10206 | 8 ft | 0 kts | 56° |
| 2026-04-28 14:23 | 41.29241 | 2.10217 | 8 ft | 2 kts | 58° |
| 2026-04-28 14:23 | 41.29243 | 2.10291 | 9 ft | 8 kts | 151° |
| 2026-04-28 14:24 | 41.29190 | 2.10242 | 11 ft | 17 kts | 249° |
| 2026-04-28 14:24 | 41.29003 | 2.09701 | 11 ft | 114 kts | 245° |
| 2026-04-28 14:24 | 41.28535 | 2.08370 | 212 ft | 185 kts | 243° |
| 2026-04-28 14:24 | 41.27929 | 2.06815 | 1211 ft | 192 kts | 236° |
| 2026-04-28 14:25 | 41.26936 | 2.05417 | 1991 ft | 226 kts | 210° |
| 2026-04-28 14:25 | 41.25446 | 2.04683 | 2995 ft | 227 kts | 180° |
| 2026-04-28 14:25 | 41.23984 | 2.05077 | 4465 ft | 213 kts | 163° |
| 2026-04-28 14:25 | 41.22572 | 2.05538 | 5339 ft | 211 kts | 170° |
| 2026-04-28 14:26 | 41.21069 | 2.05738 | 5837 ft | 225 kts | 177° |
| 2026-04-28 14:26 | 41.19396 | 2.05728 | 6440 ft | 252 kts | 182° |
| 2026-04-28 14:26 | 41.17654 | 2.05475 | 7687 ft | 248 kts | 196° |
| 2026-04-28 14:26 | 41.16062 | 2.04632 | 9067 ft | 246 kts | 204° |
| 2026-04-28 14:27 | 41.14520 | 2.03616 | 10223 ft | 249 kts | 206° |
| 2026-04-28 14:27 | 41.12968 | 2.02551 | 11271 ft | 253 kts | 207° |
| 2026-04-28 14:27 | 41.11394 | 2.01467 | 12344 ft | 256 kts | 208° |
| 2026-04-28 14:27 | 41.09802 | 2.00375 | 13457 ft | 259 kts | 209° |
| 2026-04-28 14:28 | 41.08186 | 1.99275 | 14455 ft | 263 kts | 208° |
| 2026-04-28 14:28 | 41.06454 | 1.98427 | 15406 ft | 271 kts | 197° |
| 2026-04-28 14:28 | 41.04533 | 1.97865 | 15925 ft | 296 kts | 193° |
| 2026-04-28 14:28 | 41.02422 | 1.97354 | 16345 ft | 321 kts | 192° |
| 2026-04-28 14:29 | 41.00187 | 1.96829 | 16815 ft | 339 kts | 192° |
| 2026-04-28 14:29 | 40.97835 | 1.96286 | 16997 ft | 345 kts | 190° |
| 2026-04-28 14:29 | 40.95427 | 1.96184 | 17015 ft | 349 kts | 175° |
| 2026-04-28 14:29 | 40.93097 | 1.97127 | 17010 ft | 355 kts | 155° |
| 2026-04-28 14:30 | 40.91138 | 1.99158 | 17016 ft | 362 kts | 136° |
| 2026-04-28 14:30 | 40.89529 | 2.01721 | 17024 ft | 364 kts | 130° |
| 2026-04-28 14:30 | 40.87987 | 2.04392 | 17013 ft | 365 kts | 130° |
| 2026-04-28 14:30 | 40.86447 | 2.07069 | 17015 ft | 366 kts | 130° |
| 2026-04-28 14:31 | 40.84900 | 2.09738 | 17012 ft | 366 kts | 130° |
| 2026-04-28 14:31 | 40.83345 | 2.12403 | 17012 ft | 366 kts | 130° |
| 2026-04-28 14:31 | 40.81781 | 2.15069 | 17011 ft | 366 kts | 131° |
| 2026-04-28 14:31 | 40.80234 | 2.17703 | 16920 ft | 359 kts | 131° |
| 2026-04-28 14:32 | 40.78698 | 2.20310 | 17005 ft | 362 kts | 131° |
| 2026-04-28 14:32 | 40.77057 | 2.22842 | 17011 ft | 362 kts | 140° |
| 2026-04-28 14:32 | 40.75088 | 2.24812 | 17013 ft | 359 kts | 150° |
| 2026-04-28 14:32 | 40.72974 | 2.26566 | 17014 ft | 359 kts | 152° |
| 2026-04-28 14:33 | 40.70836 | 2.28282 | 17012 ft | 359 kts | 152° |
| 2026-04-28 14:33 | 40.68703 | 2.29993 | 17014 ft | 359 kts | 152° |
| 2026-04-28 14:33 | 40.66573 | 2.31707 | 17015 ft | 359 kts | 151° |
| 2026-04-28 14:33 | 40.64441 | 2.33426 | 17014 ft | 358 kts | 152° |
| 2026-04-28 14:34 | 40.59884 | 2.35876 | 17016 ft | 353 kts | 167° |
| 2026-04-28 14:34 | 40.57505 | 2.36712 | 17012 ft | 353 kts | 168° |
| 2026-04-28 14:34 | 40.55128 | 2.37526 | 17016 ft | 353 kts | 168° |
| 2026-04-28 14:35 | 40.52751 | 2.38343 | 17013 ft | 353 kts | 168° |
| 2026-04-28 14:35 | 40.50381 | 2.39163 | 17010 ft | 353 kts | 168° |
| 2026-04-28 14:35 | 40.48004 | 2.39987 | 17009 ft | 353 kts | 168° |
| 2026-04-28 14:35 | 40.45625 | 2.40813 | 17016 ft | 353 kts | 168° |
| 2026-04-28 14:36 | 40.43247 | 2.41640 | 17005 ft | 353 kts | 168° |
| 2026-04-28 14:36 | 40.40900 | 2.42456 | 17006 ft | 354 kts | 168° |
| 2026-04-28 14:36 | 40.38518 | 2.43283 | 17009 ft | 354 kts | 168° |
| 2026-04-28 14:36 | 40.36136 | 2.44110 | 17006 ft | 354 kts | 168° |
| 2026-04-28 14:37 | 40.33759 | 2.44935 | 16989 ft | 353 kts | 168° |
| 2026-04-28 14:37 | 40.31409 | 2.45752 | 16745 ft | 346 kts | 168° |
| 2026-04-28 14:37 | 40.29093 | 2.46556 | 16486 ft | 343 kts | 168° |
| 2026-04-28 14:37 | 40.26783 | 2.47356 | 16235 ft | 342 kts | 168° |
| 2026-04-28 14:38 | 40.24483 | 2.48151 | 15981 ft | 341 kts | 168° |
| 2026-04-28 14:38 | 40.22216 | 2.49064 | 15730 ft | 343 kts | 161° |
| 2026-04-28 14:38 | 40.20166 | 2.50702 | 15480 ft | 349 kts | 141° |
| 2026-04-28 14:38 | 40.18621 | 2.53162 | 15243 ft | 353 kts | 126° |
| 2026-04-28 14:39 | 40.17352 | 2.55929 | 14996 ft | 354 kts | 122° |
| 2026-04-28 14:39 | 40.16140 | 2.58723 | 14756 ft | 353 kts | 122° |
| 2026-04-28 14:39 | 40.14936 | 2.61497 | 14515 ft | 347 kts | 122° |
| 2026-04-28 14:39 | 40.13747 | 2.64219 | 14137 ft | 343 kts | 122° |
| 2026-04-28 14:40 | 40.12559 | 2.66918 | 13650 ft | 342 kts | 122° |
| 2026-04-28 14:40 | 40.11773 | 2.68697 | 13300 ft | 341 kts | 122° |
| 2026-04-28 14:40 | 40.10194 | 2.72262 | 12664 ft | 337 kts | 122° |
| 2026-04-28 14:40 | 40.09024 | 2.74902 | 12194 ft | 333 kts | 122° |
| 2026-04-28 14:41 | 40.07872 | 2.77504 | 11726 ft | 330 kts | 122° |
| 2026-04-28 14:41 | 40.06729 | 2.80081 | 11263 ft | 326 kts | 122° |
| 2026-04-28 14:41 | 40.05612 | 2.82601 | 10830 ft | 323 kts | 122° |
| 2026-04-28 14:41 | 40.04481 | 2.85148 | 10511 ft | 314 kts | 122° |
| 2026-04-28 14:42 | 40.03427 | 2.87525 | 10405 ft | 299 kts | 123° |
| 2026-04-28 14:42 | 40.02395 | 2.89848 | 10026 ft | 295 kts | 123° |
| 2026-04-28 14:42 | 40.01369 | 2.92149 | 9600 ft | 291 kts | 123° |
| 2026-04-28 14:42 | 40.00358 | 2.94417 | 9248 ft | 286 kts | 122° |
| 2026-04-28 14:43 | 39.99361 | 2.96653 | 8899 ft | 283 kts | 122° |
| 2026-04-28 14:43 | 39.98373 | 2.98867 | 8540 ft | 281 kts | 123° |
| 2026-04-28 14:43 | 39.97394 | 3.01060 | 8201 ft | 278 kts | 123° |
| 2026-04-28 14:43 | 39.96421 | 3.03236 | 7860 ft | 277 kts | 123° |
| 2026-04-28 14:44 | 39.95456 | 3.05394 | 7516 ft | 274 kts | 122° |
| 2026-04-28 14:44 | 39.94451 | 3.07497 | 7178 ft | 271 kts | 128° |
| 2026-04-28 14:44 | 39.93078 | 3.09148 | 6857 ft | 277 kts | 150° |
| 2026-04-28 14:44 | 39.91234 | 3.09909 | 6712 ft | 283 kts | 176° |
| 2026-04-28 14:45 | 39.89326 | 3.09572 | 6458 ft | 274 kts | 197° |
| 2026-04-28 14:45 | 39.87555 | 3.08672 | 5938 ft | 274 kts | 202° |
| 2026-04-28 14:45 | 39.85816 | 3.07662 | 5465 ft | 272 kts | 203° |
| 2026-04-28 14:45 | 39.84126 | 3.06676 | 5238 ft | 257 kts | 202° |
| 2026-04-28 14:46 | 39.82527 | 3.05753 | 4878 ft | 248 kts | 202° |
| 2026-04-28 14:46 | 39.81083 | 3.04568 | 4506 ft | 249 kts | 225° |
| 2026-04-28 14:46 | 39.80304 | 3.02544 | 4766 ft | 257 kts | 257° |
| 2026-04-28 14:46 | 39.80283 | 3.00245 | 5013 ft | 255 kts | 274° |
| 2026-04-28 14:47 | 39.80522 | 2.97957 | 5003 ft | 255 kts | 278° |
| 2026-04-28 14:47 | 39.81112 | 2.95742 | 5249 ft | 271 kts | 295° |
| 2026-04-28 14:47 | 39.81860 | 2.93522 | 6497 ft | 279 kts | 289° |
| 2026-04-28 14:47 | 39.82645 | 2.91063 | 7358 ft | 313 kts | 296° |
| 2026-04-28 14:48 | 39.83953 | 2.88547 | 7849 ft | 358 kts | 306° |
| 2026-04-28 14:48 | 39.85566 | 2.85861 | 8366 ft | 394 kts | 306° |
| 2026-04-28 14:48 | 39.87431 | 2.83170 | 9714 ft | 395 kts | 318° |
| 2026-04-28 14:48 | 39.89660 | 2.81393 | 11011 ft | 357 kts | 335° |
| 2026-04-28 14:49 | 39.91952 | 2.80749 | 11542 ft | 323 kts | 356° |
| 2026-04-28 14:49 | 39.94112 | 2.81186 | 11462 ft | 310 kts | 16° |
| 2026-04-28 14:49 | 39.96085 | 2.82197 | 11273 ft | 299 kts | 21° |
| 2026-04-28 14:49 | 39.97787 | 2.83601 | 11111 ft | 291 kts | 44° |
| 2026-04-28 14:50 | 39.98870 | 2.85753 | 10949 ft | 281 kts | 66° |
| 2026-04-28 14:50 | 39.99681 | 2.88024 | 10824 ft | 271 kts | 64° |
| 2026-04-28 14:50 | 40.00497 | 2.90183 | 10709 ft | 261 kts | 64° |
| 2026-04-28 14:50 | 40.01293 | 2.92262 | 10579 ft | 252 kts | 64° |
| 2026-04-28 14:51 | 40.02065 | 2.94270 | 10469 ft | 243 kts | 64° |
| 2026-04-28 14:51 | 40.02794 | 2.96211 | 10362 ft | 234 kts | 69° |
| 2026-04-28 14:51 | 40.02996 | 2.98265 | 10103 ft | 228 kts | 103° |
| 2026-04-28 14:51 | 40.02342 | 3.00070 | 9811 ft | 219 kts | 138° |
| 2026-04-28 14:52 | 40.01108 | 3.01143 | 9549 ft | 210 kts | 160° |
| 2026-04-28 14:52 | 39.99755 | 3.01834 | 9286 ft | 208 kts | 163° |
| 2026-04-28 14:52 | 39.98394 | 3.02460 | 8992 ft | 208 kts | 164° |
| 2026-04-28 14:52 | 39.97031 | 3.03085 | 8695 ft | 208 kts | 164° |
| 2026-04-28 14:53 | 39.95673 | 3.03709 | 8461 ft | 206 kts | 164° |
| 2026-04-28 14:53 | 39.94330 | 3.04322 | 8237 ft | 203 kts | 164° |
| 2026-04-28 14:53 | 39.92994 | 3.04920 | 7985 ft | 203 kts | 164° |
| 2026-04-28 14:53 | 39.91662 | 3.05531 | 7727 ft | 204 kts | 156° |
| 2026-04-28 14:54 | 39.90472 | 3.06569 | 7387 ft | 208 kts | 141° |
| 2026-04-28 14:54 | 39.89387 | 3.07809 | 7150 ft | 207 kts | 142° |
| 2026-04-28 14:54 | 39.88104 | 3.08521 | 6870 ft | 203 kts | 181° |
| 2026-04-28 14:54 | 39.86742 | 3.08128 | 6606 ft | 202 kts | 200° |
| 2026-04-28 14:55 | 39.85460 | 3.07440 | 6358 ft | 201 kts | 203° |
| 2026-04-28 14:55 | 39.84597 | 3.06942 | 6190 ft | 201 kts | 203° |
| 2026-04-28 14:55 | 39.83320 | 3.06203 | 5931 ft | 200 kts | 202° |
| 2026-04-28 14:55 | 39.81629 | 3.05236 | 5580 ft | 200 kts | 201° |
| 2026-04-28 14:56 | 39.80367 | 3.04519 | 5378 ft | 194 kts | 200° |
| 2026-04-28 14:56 | 39.79538 | 3.04051 | 5162 ft | 192 kts | 201° |
| 2026-04-28 14:56 | 39.78302 | 3.03357 | 4761 ft | 195 kts | 201° |
| 2026-04-28 14:56 | 39.77061 | 3.02662 | 4358 ft | 198 kts | 201° |
| 2026-04-28 14:57 | 39.75795 | 3.01953 | 3970 ft | 198 kts | 199° |
| 2026-04-28 14:57 | 39.74521 | 3.01240 | 3470 ft | 201 kts | 201° |
| 2026-04-28 14:57 | 39.73236 | 3.00522 | 3094 ft | 201 kts | 199° |
| 2026-04-28 14:57 | 39.71951 | 2.99803 | 3003 ft | 202 kts | 198° |
| 2026-04-28 14:58 | 39.70662 | 2.99074 | 2991 ft | 202 kts | 200° |
| 2026-04-28 14:58 | 39.69377 | 2.98343 | 3007 ft | 201 kts | 200° |
| 2026-04-28 14:58 | 39.68139 | 2.97644 | 3002 ft | 202 kts | 200° |
| 2026-04-28 14:58 | 39.66851 | 2.96920 | 3007 ft | 202 kts | 200° |
| 2026-04-28 14:59 | 39.65581 | 2.96154 | 2988 ft | 202 kts | 209° |
| 2026-04-28 14:59 | 39.64512 | 2.94976 | 3004 ft | 204 kts | 227° |
| 2026-04-28 14:59 | 39.63706 | 2.93462 | 3013 ft | 204 kts | 237° |
| 2026-04-28 14:59 | 39.62981 | 2.91921 | 3037 ft | 197 kts | 237° |
| 2026-04-28 15:00 | 39.62270 | 2.90424 | 2713 ft | 195 kts | 236° |
| 2026-04-28 15:00 | 39.61559 | 2.88917 | 2341 ft | 197 kts | 237° |
| 2026-04-28 15:00 | 39.60842 | 2.87402 | 2033 ft | 197 kts | 237° |
| 2026-04-28 15:00 | 39.60125 | 2.85885 | 1785 ft | 196 kts | 238° |
| 2026-04-28 15:01 | 39.59424 | 2.84395 | 1516 ft | 188 kts | 237° |
| 2026-04-28 15:01 | 39.58765 | 2.82995 | 1287 ft | 178 kts | 236° |
| 2026-04-28 15:01 | 39.58148 | 2.81694 | 1030 ft | 159 kts | 237° |
| 2026-04-28 15:01 | 39.57591 | 2.80522 | 832 ft | 147 kts | 238° |
| 2026-04-28 15:02 | 39.57076 | 2.79426 | 666 ft | 138 kts | 238° |
| 2026-04-28 15:02 | 39.56594 | 2.78379 | 534 ft | 133 kts | 239° |
| 2026-04-28 15:02 | 39.56106 | 2.77367 | 369 ft | 132 kts | 238° |
| 2026-04-28 15:02 | 39.55638 | 2.76368 | 136 ft | 126 kts | 238° |
| 2026-04-28 15:03 | 39.55186 | 2.75419 | 39 ft | 119 kts | 239° |
| 2026-04-28 15:03 | 39.54745 | 2.74476 | 279 ft | 141 kts | 237° |
| 2026-04-28 15:03 | 39.54124 | 2.73234 | 859 ft | 189 kts | 236° |
| 2026-04-28 15:03 | 39.53234 | 2.71770 | 1524 ft | 221 kts | 216° |
| 2026-04-28 15:04 | 39.51910 | 2.70989 | 2102 ft | 201 kts | 183° |
| 2026-04-28 15:04 | 39.50612 | 2.71257 | 2277 ft | 184 kts | 149° |
| 2026-04-28 15:04 | 39.49542 | 2.72139 | 2164 ft | 184 kts | 139° |
| 2026-04-28 15:04 | 39.48594 | 2.73287 | 2543 ft | 190 kts | 120° |
| 2026-04-28 15:05 | 39.48285 | 2.74863 | 2899 ft | 180 kts | 84° |
| 2026-04-28 15:05 | 39.48786 | 2.76332 | 2983 ft | 182 kts | 55° |
| 2026-04-28 15:05 | 39.49651 | 2.77553 | 3020 ft | 186 kts | 48° |
| 2026-04-28 15:05 | 39.50575 | 2.78710 | 2981 ft | 184 kts | 48° |
| 2026-04-28 15:06 | 39.51505 | 2.79845 | 2987 ft | 185 kts | 47° |
| 2026-04-28 15:06 | 39.52441 | 2.80994 | 3004 ft | 184 kts | 46° |
| 2026-04-28 15:06 | 39.53353 | 2.82139 | 2840 ft | 184 kts | 46° |
| 2026-04-28 15:06 | 39.54269 | 2.83284 | 2508 ft | 183 kts | 47° |
| 2026-04-28 15:07 | 39.55191 | 2.84409 | 2150 ft | 182 kts | 43° |
| 2026-04-28 15:07 | 39.56367 | 2.85015 | 1779 ft | 190 kts | 5° |
| 2026-04-28 15:07 | 39.57485 | 2.85181 | 2081 ft | 133 kts | 63° |
| 2026-04-28 15:07 | 39.58055 | 2.86366 | 2748 ft | 176 kts | 65° |
| 2026-04-28 15:08 | 39.58566 | 2.87954 | 3336 ft | 211 kts | 67° |
| 2026-04-28 15:08 | 39.59151 | 2.89705 | 4514 ft | 208 kts | 68° |
| 2026-04-28 15:08 | 39.59770 | 2.91529 | 5389 ft | 225 kts | 68° |
| 2026-04-28 15:08 | 39.60440 | 2.93515 | 5994 ft | 260 kts | 65° |
| 2026-04-28 15:09 | 39.61528 | 2.95217 | 6458 ft | 225 kts | 50° |
| 2026-04-28 15:09 | 39.62567 | 2.96561 | 6660 ft | 199 kts | 49° |
| 2026-04-28 15:09 | 39.63429 | 2.97836 | 6821 ft | 176 kts | 53° |
| 2026-04-28 15:09 | 39.63922 | 2.98605 | 6918 ft | 158 kts | 52° |
| 2026-04-28 15:10 | 39.64838 | 2.99888 | 6808 ft | 148 kts | 33° |
| 2026-04-28 15:10 | 39.65841 | 3.00477 | 6335 ft | 172 kts | 13° |
| 2026-04-28 15:10 | 39.67117 | 3.00241 | 5780 ft | 206 kts | 332° |
| 2026-04-28 15:10 | 39.68151 | 2.98920 | 5172 ft | 215 kts | 296° |
| 2026-04-28 15:11 | 39.68431 | 2.97011 | 4537 ft | 224 kts | 261° |
| 2026-04-28 15:11 | 39.67821 | 2.95130 | 3909 ft | 234 kts | 227° |
| 2026-04-28 15:11 | 39.66500 | 2.93886 | 3309 ft | 240 kts | 202° |
| 2026-04-28 15:11 | 39.64984 | 2.92853 | 2696 ft | 253 kts | 212° |
| 2026-04-28 15:12 | 39.63562 | 2.91426 | 2079 ft | 262 kts | 217° |
| 2026-04-28 15:12 | 39.62231 | 2.89896 | 1475 ft | 248 kts | 225° |
| 2026-04-28 15:12 | 39.61282 | 2.88243 | 1532 ft | 209 kts | 235° |
| 2026-04-28 15:12 | 39.60576 | 2.86714 | 1492 ft | 191 kts | 238° |
| 2026-04-28 15:13 | 39.59895 | 2.85250 | 1568 ft | 190 kts | 238° |
| 2026-04-28 15:13 | 39.59189 | 2.83831 | 1473 ft | 186 kts | 234° |
| 2026-04-28 15:13 | 39.58448 | 2.82452 | 1426 ft | 188 kts | 229° |
| 2026-04-28 15:13 | 39.57745 | 2.81019 | 1170 ft | 187 kts | 229° |
| 2026-04-28 15:14 | 39.57121 | 2.79612 | 730 ft | 172 kts | 244° |